PWSweather.com
Personal Weather Stations
Station Observations
EDGELEY
Edgeley, Nd, Edgeley, ND 58433

Edgeley, NdEdgeley, ND 58433

Lat: 46.3599246, Lon: -98.7144392

Elevation: 1575

Station Type: Davis/Vantage Pro

www.edgeleyweather.com

High Low Average
Temperature 70.7°F21.5°C 53.3°F11.8°C 61.8°F16.6°C
Dew Point 59.3°F15.2°C 50.0°F10.0°C 54.3°F12.4°C
Winds 17.0 mph 27.4 kmh Calm Calm 5.0 mph N8.0 kmh N
Wind Gusts 20.0 mph32.2 kmh -- 9.0 mph14.5 kmh
Humidity 98% 54% 78%
Pressure 29.93 in1013.5 mb 29.74 in1007.1 mb -
Precipitation 0.00 in0.0 mm - -
Hour Temp Dew Point Humidity Winds Wind Gusts Pressure Precip Precip Rate Daily Precip Total
12:00 AM 59.8°F15.4°C 59.0°F15.0°C 97% Calm Calm -- 29.76 in1007.8 mb 0.00 in0.0 mm 0.00 in0.0 mm 0.00 in0.0 mm
12:05 AM 59.8°F15.4°C 59.0°F15.0°C 97% Calm Calm 2.0 mph3.2 kmh 29.76 in1007.8 mb 0.00 in0.0 mm 0.00 in0.0 mm 0.00 in0.0 mm
12:10 AM 59.8°F15.4°C 59.0°F15.0°C 97% Calm Calm 3.0 mph4.8 kmh 29.76 in1007.8 mb 0.00 in0.0 mm 0.00 in0.0 mm 0.00 in0.0 mm
12:15 AM 59.7°F15.4°C 58.9°F14.9°C 97% 2.0 mph N3.2 kmh N 2.0 mph3.2 kmh 29.76 in1007.8 mb 0.00 in0.0 mm 0.00 in0.0 mm 0.00 in0.0 mm
12:20 AM 59.6°F15.3°C 58.8°F14.9°C 97% Calm Calm 2.0 mph3.2 kmh 29.76 in1007.8 mb 0.00 in0.0 mm 0.00 in0.0 mm 0.00 in0.0 mm
12:25 AM 59.5°F15.3°C 58.7°F14.8°C 97% 1.0 mph N1.6 kmh N 2.0 mph3.2 kmh 29.76 in1007.8 mb 0.00 in0.0 mm 0.00 in0.0 mm 0.00 in0.0 mm
12:30 AM 59.5°F15.3°C 58.7°F14.8°C 97% Calm Calm -- 29.76 in1007.8 mb 0.00 in0.0 mm 0.00 in0.0 mm 0.00 in0.0 mm
12:35 AM 59.5°F15.3°C 58.7°F14.8°C 97% Calm Calm -- 29.76 in1007.8 mb 0.00 in0.0 mm 0.00 in0.0 mm 0.00 in0.0 mm
12:40 AM 59.5°F15.3°C 58.7°F14.8°C 97% Calm Calm -- 29.76 in1007.8 mb 0.00 in0.0 mm 0.00 in0.0 mm 0.00 in0.0 mm
12:45 AM 59.5°F15.3°C 58.7°F14.8°C 97% 1.0 mph N1.6 kmh N 1.0 mph1.6 kmh 29.76 in1007.8 mb 0.00 in0.0 mm 0.00 in0.0 mm 0.00 in0.0 mm
12:50 AM 59.5°F15.3°C 58.7°F14.8°C 97% Calm Calm 1.0 mph1.6 kmh 29.76 in1007.8 mb 0.00 in0.0 mm 0.00 in0.0 mm 0.00 in0.0 mm
12:55 AM 59.5°F15.3°C 58.7°F14.8°C 97% Calm Calm 1.0 mph1.6 kmh 29.76 in1007.8 mb 0.00 in0.0 mm 0.00 in0.0 mm 0.00 in0.0 mm
01:00 AM 59.5°F15.3°C 58.7°F14.8°C 97% Calm Calm -- 29.76 in1007.8 mb 0.00 in0.0 mm 0.00 in0.0 mm 0.00 in0.0 mm
01:05 AM 59.5°F15.3°C 58.9°F14.9°C 98% Calm Calm -- 29.76 in1007.8 mb 0.00 in0.0 mm 0.00 in0.0 mm 0.00 in0.0 mm
01:10 AM 59.6°F15.3°C 59.0°F15.0°C 98% Calm Calm -- 29.76 in1007.8 mb 0.00 in0.0 mm 0.00 in0.0 mm 0.00 in0.0 mm
01:15 AM 59.6°F15.3°C 59.0°F15.0°C 98% Calm Calm -- 29.76 in1007.8 mb 0.00 in0.0 mm 0.00 in0.0 mm 0.00 in0.0 mm
01:20 AM 59.6°F15.3°C 59.0°F15.0°C 98% Calm Calm -- 29.76 in1007.8 mb 0.00 in0.0 mm 0.00 in0.0 mm 0.00 in0.0 mm
01:25 AM 59.6°F15.3°C 59.0°F15.0°C 98% Calm Calm -- 29.76 in1007.8 mb 0.00 in0.0 mm 0.00 in0.0 mm 0.00 in0.0 mm
01:30 AM 59.6°F15.3°C 59.0°F15.0°C 98% Calm Calm -- 29.76 in1007.8 mb 0.00 in0.0 mm 0.00 in0.0 mm 0.00 in0.0 mm
01:35 AM 59.6°F15.3°C 59.0°F15.0°C 98% Calm Calm -- 29.76 in1007.8 mb 0.00 in0.0 mm 0.00 in0.0 mm 0.00 in0.0 mm
01:40 AM 59.6°F15.3°C 59.0°F15.0°C 98% Calm Calm -- 29.76 in1007.8 mb 0.00 in0.0 mm 0.00 in0.0 mm 0.00 in0.0 mm
01:45 AM 59.7°F15.4°C 59.1°F15.1°C 98% Calm Calm -- 29.76 in1007.8 mb 0.00 in0.0 mm 0.00 in0.0 mm 0.00 in0.0 mm
01:50 AM 59.7°F15.4°C 59.1°F15.1°C 98% Calm Calm -- 29.76 in1007.8 mb 0.00 in0.0 mm 0.00 in0.0 mm 0.00 in0.0 mm
01:55 AM 59.8°F15.4°C 59.2°F15.1°C 98% Calm Calm 2.0 mph3.2 kmh 29.75 in1007.5 mb 0.00 in0.0 mm 0.00 in0.0 mm 0.00 in0.0 mm
02:00 AM 59.8°F15.4°C 59.2°F15.1°C 98% Calm Calm -- 29.76 in1007.8 mb 0.00 in0.0 mm 0.00 in0.0 mm 0.00 in0.0 mm
02:05 AM 59.8°F15.4°C 59.2°F15.1°C 98% Calm Calm 3.0 mph4.8 kmh 29.75 in1007.5 mb 0.00 in0.0 mm 0.00 in0.0 mm 0.00 in0.0 mm
02:10 AM 59.9°F15.5°C 59.3°F15.2°C 98% Calm Calm 3.0 mph4.8 kmh 29.75 in1007.5 mb 0.00 in0.0 mm 0.00 in0.0 mm 0.00 in0.0 mm
02:15 AM 59.7°F15.4°C 58.9°F14.9°C 97% Calm Calm 1.0 mph1.6 kmh 29.75 in1007.5 mb 0.00 in0.0 mm 0.00 in0.0 mm 0.00 in0.0 mm
02:20 AM 59.6°F15.3°C 59.0°F15.0°C 98% Calm Calm 2.0 mph3.2 kmh 29.75 in1007.5 mb 0.00 in0.0 mm 0.00 in0.0 mm 0.00 in0.0 mm
02:25 AM 59.5°F15.3°C 58.9°F14.9°C 98% Calm Calm 2.0 mph3.2 kmh 29.75 in1007.5 mb 0.00 in0.0 mm 0.00 in0.0 mm 0.00 in0.0 mm
02:30 AM 59.3°F15.2°C 58.5°F14.7°C 97% Calm Calm -- 29.75 in1007.5 mb 0.00 in0.0 mm 0.00 in0.0 mm 0.00 in0.0 mm
02:35 AM 59.1°F15.1°C 58.3°F14.6°C 97% Calm Calm 1.0 mph1.6 kmh 29.74 in1007.1 mb 0.00 in0.0 mm 0.00 in0.0 mm 0.00 in0.0 mm
02:40 AM 59.1°F15.1°C 58.5°F14.7°C 98% Calm Calm 1.0 mph1.6 kmh 29.75 in1007.5 mb 0.00 in0.0 mm 0.00 in0.0 mm 0.00 in0.0 mm
02:45 AM 59.0°F15.0°C 58.4°F14.7°C 98% 1.0 mph N1.6 kmh N 1.0 mph1.6 kmh 29.75 in1007.5 mb 0.00 in0.0 mm 0.00 in0.0 mm 0.00 in0.0 mm
02:50 AM 58.9°F14.9°C 58.3°F14.6°C 98% Calm Calm 1.0 mph1.6 kmh 29.75 in1007.5 mb 0.00 in0.0 mm 0.00 in0.0 mm 0.00 in0.0 mm
02:55 AM 58.8°F14.9°C 58.2°F14.6°C 98% Calm Calm 1.0 mph1.6 kmh 29.74 in1007.1 mb 0.00 in0.0 mm 0.00 in0.0 mm 0.00 in0.0 mm
03:00 AM 58.6°F14.8°C 57.8°F14.3°C 97% Calm Calm -- 29.75 in1007.5 mb 0.00 in0.0 mm 0.00 in0.0 mm 0.00 in0.0 mm
03:05 AM 58.5°F14.7°C 57.7°F14.3°C 97% Calm Calm -- 29.74 in1007.1 mb 0.00 in0.0 mm 0.00 in0.0 mm 0.00 in0.0 mm
03:10 AM 58.3°F14.6°C 57.5°F14.2°C 97% Calm Calm -- 29.74 in1007.1 mb 0.00 in0.0 mm 0.00 in0.0 mm 0.00 in0.0 mm
03:15 AM 58.1°F14.5°C 57.3°F14.1°C 97% Calm Calm -- 29.75 in1007.5 mb 0.00 in0.0 mm 0.00 in0.0 mm 0.00 in0.0 mm
03:20 AM 58.0°F14.4°C 57.2°F14.0°C 97% Calm Calm -- 29.74 in1007.1 mb 0.00 in0.0 mm 0.00 in0.0 mm 0.00 in0.0 mm
03:25 AM 57.8°F14.3°C 57.0°F13.9°C 97% Calm Calm -- 29.74 in1007.1 mb 0.00 in0.0 mm 0.00 in0.0 mm 0.00 in0.0 mm
03:30 AM 57.7°F14.3°C 56.9°F13.8°C 97% Calm Calm -- 29.75 in1007.5 mb 0.00 in0.0 mm 0.00 in0.0 mm 0.00 in0.0 mm
03:35 AM 57.5°F14.2°C 56.7°F13.7°C 97% Calm Calm -- 29.75 in1007.5 mb 0.00 in0.0 mm 0.00 in0.0 mm 0.00 in0.0 mm
03:40 AM 57.4°F14.1°C 56.6°F13.7°C 97% Calm Calm 1.0 mph1.6 kmh 29.75 in1007.5 mb 0.00 in0.0 mm 0.00 in0.0 mm 0.00 in0.0 mm
03:45 AM 57.2°F14.0°C 56.4°F13.6°C 97% Calm Calm -- 29.75 in1007.5 mb 0.00 in0.0 mm 0.00 in0.0 mm 0.00 in0.0 mm
03:50 AM 57.0°F13.9°C 56.2°F13.4°C 97% Calm Calm -- 29.75 in1007.5 mb 0.00 in0.0 mm 0.00 in0.0 mm 0.00 in0.0 mm
03:55 AM 56.9°F13.8°C 56.1°F13.4°C 97% Calm Calm -- 29.75 in1007.5 mb 0.00 in0.0 mm 0.00 in0.0 mm 0.00 in0.0 mm
04:00 AM 56.7°F13.7°C 55.9°F13.3°C 97% Calm Calm -- 29.75 in1007.5 mb 0.00 in0.0 mm 0.00 in0.0 mm 0.00 in0.0 mm
04:05 AM 56.6°F13.7°C 55.8°F13.2°C 97% Calm Calm -- 29.75 in1007.5 mb 0.00 in0.0 mm 0.00 in0.0 mm 0.00 in0.0 mm
04:10 AM 56.4°F13.6°C 55.6°F13.1°C 97% Calm Calm 1.0 mph1.6 kmh 29.75 in1007.5 mb 0.00 in0.0 mm 0.00 in0.0 mm 0.00 in0.0 mm
04:15 AM 56.3°F13.5°C 55.5°F13.1°C 97% Calm Calm 1.0 mph1.6 kmh 29.75 in1007.5 mb 0.00 in0.0 mm 0.00 in0.0 mm 0.00 in0.0 mm
04:20 AM 56.2°F13.4°C 55.4°F13.0°C 97% 2.0 mph N3.2 kmh N 3.0 mph4.8 kmh 29.76 in1007.8 mb 0.00 in0.0 mm 0.00 in0.0 mm 0.00 in0.0 mm
04:25 AM 56.2°F13.4°C 55.7°F13.2°C 98% 1.0 mph N1.6 kmh N 3.0 mph4.8 kmh 29.76 in1007.8 mb 0.00 in0.0 mm 0.00 in0.0 mm 0.00 in0.0 mm
04:30 AM 56.1°F13.4°C 55.6°F13.1°C 98% 1.0 mph N1.6 kmh N 3.0 mph4.8 kmh 29.76 in1007.8 mb 0.00 in0.0 mm 0.00 in0.0 mm 0.00 in0.0 mm
04:35 AM 56.1°F13.4°C 55.6°F13.1°C 98% 2.0 mph N3.2 kmh N 4.0 mph6.4 kmh 29.76 in1007.8 mb 0.00 in0.0 mm 0.00 in0.0 mm 0.00 in0.0 mm
04:40 AM 56.1°F13.4°C 55.6°F13.1°C 98% 1.0 mph N1.6 kmh N 4.0 mph6.4 kmh 29.76 in1007.8 mb 0.00 in0.0 mm 0.00 in0.0 mm 0.00 in0.0 mm
04:45 AM 56.1°F13.4°C 55.6°F13.1°C 98% 5.0 mph N8.0 kmh N 5.0 mph8.0 kmh 29.76 in1007.8 mb 0.00 in0.0 mm 0.00 in0.0 mm 0.00 in0.0 mm
04:50 AM 56.3°F13.5°C 55.8°F13.2°C 98% 4.0 mph N6.4 kmh N 6.0 mph9.7 kmh 29.76 in1007.8 mb 0.00 in0.0 mm 0.00 in0.0 mm 0.00 in0.0 mm
04:55 AM 56.4°F13.6°C 55.9°F13.3°C 98% 5.0 mph N8.0 kmh N 9.0 mph14.5 kmh 29.76 in1007.8 mb 0.00 in0.0 mm 0.00 in0.0 mm 0.00 in0.0 mm
05:00 AM 56.5°F13.6°C 55.9°F13.3°C 98% 1.0 mph N1.6 kmh N 4.0 mph6.4 kmh 29.77 in1008.1 mb 0.00 in0.0 mm 0.00 in0.0 mm 0.00 in0.0 mm
05:05 AM 56.5°F13.6°C 55.9°F13.3°C 98% 3.0 mph N4.8 kmh N 7.0 mph11.3 kmh 29.77 in1008.1 mb 0.00 in0.0 mm 0.00 in0.0 mm 0.00 in0.0 mm
05:10 AM 56.4°F13.6°C 55.9°F13.3°C 98% 3.0 mph N4.8 kmh N 7.0 mph11.3 kmh 29.77 in1008.1 mb 0.00 in0.0 mm 0.00 in0.0 mm 0.00 in0.0 mm
05:15 AM 56.4°F13.6°C 55.9°F13.3°C 98% 5.0 mph N8.0 kmh N 6.0 mph9.7 kmh 29.77 in1008.1 mb 0.00 in0.0 mm 0.00 in0.0 mm 0.00 in0.0 mm
05:20 AM 56.2°F13.4°C 55.4°F13.0°C 97% 3.0 mph N4.8 kmh N 8.0 mph12.9 kmh 29.78 in1008.5 mb 0.00 in0.0 mm 0.00 in0.0 mm 0.00 in0.0 mm
05:25 AM 56.0°F13.3°C 55.2°F12.9°C 97% 3.0 mph N4.8 kmh N 8.0 mph12.9 kmh 29.78 in1008.5 mb 0.00 in0.0 mm 0.00 in0.0 mm 0.00 in0.0 mm
05:30 AM 55.8°F13.2°C 55.0°F12.8°C 97% 3.0 mph N4.8 kmh N 4.0 mph6.4 kmh 29.78 in1008.5 mb 0.00 in0.0 mm 0.00 in0.0 mm 0.00 in0.0 mm
05:35 AM 55.7°F13.2°C 54.9°F12.7°C 97% 3.0 mph N4.8 kmh N 8.0 mph12.9 kmh 29.78 in1008.5 mb 0.00 in0.0 mm 0.00 in0.0 mm 0.00 in0.0 mm
05:40 AM 55.7°F13.2°C 54.9°F12.7°C 97% 5.0 mph N8.0 kmh N 8.0 mph12.9 kmh 29.78 in1008.5 mb 0.00 in0.0 mm 0.00 in0.0 mm 0.00 in0.0 mm
05:45 AM 55.8°F13.2°C 55.0°F12.8°C 97% 5.0 mph N8.0 kmh N 8.0 mph12.9 kmh 29.79 in1008.8 mb 0.00 in0.0 mm 0.00 in0.0 mm 0.00 in0.0 mm
05:50 AM 55.8°F13.2°C 54.7°F12.6°C 96% 3.0 mph N4.8 kmh N 9.0 mph14.5 kmh 29.79 in1008.8 mb 0.00 in0.0 mm 0.00 in0.0 mm 0.00 in0.0 mm
05:55 AM 55.9°F13.3°C 54.8°F12.7°C 96% 6.0 mph N9.7 kmh N 9.0 mph14.5 kmh 29.79 in1008.8 mb 0.00 in0.0 mm 0.00 in0.0 mm 0.00 in0.0 mm
06:00 AM 55.9°F13.3°C 54.5°F12.5°C 95% 3.0 mph N4.8 kmh N 5.0 mph8.0 kmh 29.79 in1008.8 mb 0.00 in0.0 mm 0.00 in0.0 mm 0.00 in0.0 mm
06:05 AM 56.1°F13.4°C 54.7°F12.6°C 95% 3.0 mph N4.8 kmh N 9.0 mph14.5 kmh 29.79 in1008.8 mb 0.00 in0.0 mm 0.00 in0.0 mm 0.00 in0.0 mm
06:10 AM 56.3°F13.5°C 54.6°F12.6°C 94% 4.0 mph N6.4 kmh N 9.0 mph14.5 kmh 29.79 in1008.8 mb 0.00 in0.0 mm 0.00 in0.0 mm 0.00 in0.0 mm
06:15 AM 56.5°F13.6°C 54.8°F12.7°C 94% 6.0 mph N9.7 kmh N 6.0 mph9.7 kmh 29.80 in1009.1 mb 0.00 in0.0 mm 0.00 in0.0 mm 0.00 in0.0 mm
06:20 AM 56.7°F13.7°C 54.7°F12.6°C 93% 7.0 mph N11.3 kmh N 10.0 mph16.1 kmh 29.80 in1009.1 mb 0.00 in0.0 mm 0.00 in0.0 mm 0.00 in0.0 mm
06:25 AM 56.9°F13.8°C 54.3°F12.4°C 91% 4.0 mph N6.4 kmh N 10.0 mph16.1 kmh 29.81 in1009.5 mb 0.00 in0.0 mm 0.00 in0.0 mm 0.00 in0.0 mm
06:30 AM 57.2°F14.0°C 54.3°F12.4°C 90% 8.0 mph N12.9 kmh N 8.0 mph12.9 kmh 29.81 in1009.5 mb 0.00 in0.0 mm 0.00 in0.0 mm 0.00 in0.0 mm
06:35 AM 57.4°F14.1°C 54.2°F12.3°C 89% 4.0 mph N6.4 kmh N 9.0 mph14.5 kmh 29.81 in1009.5 mb 0.00 in0.0 mm 0.00 in0.0 mm 0.00 in0.0 mm
06:40 AM 57.7°F14.3°C 54.2°F12.3°C 88% 2.0 mph N3.2 kmh N 9.0 mph14.5 kmh 29.81 in1009.5 mb 0.00 in0.0 mm 0.00 in0.0 mm 0.00 in0.0 mm
06:45 AM 57.9°F14.4°C 54.4°F12.4°C 88% 3.0 mph N4.8 kmh N 5.0 mph8.0 kmh 29.81 in1009.5 mb 0.00 in0.0 mm 0.00 in0.0 mm 0.00 in0.0 mm
06:50 AM 58.2°F14.6°C 54.0°F12.2°C 86% 3.0 mph N4.8 kmh N 11.0 mph17.7 kmh 29.80 in1009.1 mb 0.00 in0.0 mm 0.00 in0.0 mm 0.00 in0.0 mm
06:55 AM 58.4°F14.7°C 53.9°F12.2°C 85% 5.0 mph N8.0 kmh N 11.0 mph17.7 kmh 29.81 in1009.5 mb 0.00 in0.0 mm 0.00 in0.0 mm 0.00 in0.0 mm
07:00 AM 58.6°F14.8°C 53.8°F12.1°C 84% 7.0 mph N11.3 kmh N 7.0 mph11.3 kmh 29.81 in1009.5 mb 0.00 in0.0 mm 0.00 in0.0 mm 0.00 in0.0 mm
07:05 AM 58.7°F14.8°C 53.9°F12.2°C 84% 3.0 mph N4.8 kmh N 9.0 mph14.5 kmh 29.82 in1009.8 mb 0.00 in0.0 mm 0.00 in0.0 mm 0.00 in0.0 mm
07:10 AM 58.9°F14.9°C 54.7°F12.6°C 86% 3.0 mph N4.8 kmh N 9.0 mph14.5 kmh 29.82 in1009.8 mb 0.00 in0.0 mm 0.00 in0.0 mm 0.00 in0.0 mm
07:15 AM 59.2°F15.1°C 54.7°F12.6°C 85% 4.0 mph N6.4 kmh N 4.0 mph6.4 kmh 29.82 in1009.8 mb 0.00 in0.0 mm 0.00 in0.0 mm 0.00 in0.0 mm
07:20 AM 59.4°F15.2°C 54.9°F12.7°C 85% 3.0 mph N4.8 kmh N 7.0 mph11.3 kmh 29.83 in1010.2 mb 0.00 in0.0 mm 0.00 in0.0 mm 0.00 in0.0 mm
07:25 AM 59.3°F15.2°C 54.8°F12.7°C 85% 3.0 mph N4.8 kmh N 7.0 mph11.3 kmh 29.83 in1010.2 mb 0.00 in0.0 mm 0.00 in0.0 mm 0.00 in0.0 mm
07:30 AM 59.0°F15.0°C 54.5°F12.5°C 85% 3.0 mph N4.8 kmh N 4.0 mph6.4 kmh 29.83 in1010.2 mb 0.00 in0.0 mm 0.00 in0.0 mm 0.00 in0.0 mm
07:35 AM 59.0°F15.0°C 54.5°F12.5°C 85% 3.0 mph N4.8 kmh N 8.0 mph12.9 kmh 29.83 in1010.2 mb 0.00 in0.0 mm 0.00 in0.0 mm 0.00 in0.0 mm
07:40 AM 59.1°F15.1°C 54.6°F12.6°C 85% 7.0 mph N11.3 kmh N 8.0 mph12.9 kmh 29.83 in1010.2 mb 0.00 in0.0 mm 0.00 in0.0 mm 0.00 in0.0 mm
07:45 AM 59.0°F15.0°C 54.5°F12.5°C 85% 5.0 mph N8.0 kmh N 9.0 mph14.5 kmh 29.83 in1010.2 mb 0.00 in0.0 mm 0.00 in0.0 mm 0.00 in0.0 mm
07:50 AM 58.9°F14.9°C 54.4°F12.4°C 85% 5.0 mph N8.0 kmh N 9.0 mph14.5 kmh 29.83 in1010.2 mb 0.00 in0.0 mm 0.00 in0.0 mm 0.00 in0.0 mm
07:55 AM 59.1°F15.1°C 54.3°F12.4°C 84% 3.0 mph N4.8 kmh N 12.0 mph19.3 kmh 29.83 in1010.2 mb 0.00 in0.0 mm 0.00 in0.0 mm 0.00 in0.0 mm
08:00 AM 58.9°F14.9°C 53.8°F12.1°C 83% 2.0 mph N3.2 kmh N 6.0 mph9.7 kmh 29.83 in1010.2 mb 0.00 in0.0 mm 0.00 in0.0 mm 0.00 in0.0 mm
08:05 AM 58.6°F14.8°C 53.5°F11.9°C 83% 7.0 mph N11.3 kmh N 12.0 mph19.3 kmh 29.83 in1010.2 mb 0.00 in0.0 mm 0.00 in0.0 mm 0.00 in0.0 mm
08:10 AM 58.7°F14.8°C 53.6°F12.0°C 83% 7.0 mph N11.3 kmh N 12.0 mph19.3 kmh 29.83 in1010.2 mb 0.00 in0.0 mm 0.00 in0.0 mm 0.00 in0.0 mm
08:15 AM 59.2°F15.1°C 54.1°F12.3°C 83% 6.0 mph N9.7 kmh N 11.0 mph17.7 kmh 29.83 in1010.2 mb 0.00 in0.0 mm 0.00 in0.0 mm 0.00 in0.0 mm
08:20 AM 59.3°F15.2°C 53.8°F12.1°C 82% 3.0 mph N4.8 kmh N 16.0 mph25.7 kmh 29.83 in1010.2 mb 0.00 in0.0 mm 0.00 in0.0 mm 0.00 in0.0 mm
08:25 AM 59.5°F15.3°C 54.0°F12.2°C 82% 4.0 mph N6.4 kmh N 16.0 mph25.7 kmh 29.83 in1010.2 mb 0.00 in0.0 mm 0.00 in0.0 mm 0.00 in0.0 mm
08:30 AM 59.7°F15.4°C 54.2°F12.3°C 82% 7.0 mph N11.3 kmh N 10.0 mph16.1 kmh 29.83 in1010.2 mb 0.00 in0.0 mm 0.00 in0.0 mm 0.00 in0.0 mm
08:35 AM 60.0°F15.6°C 54.5°F12.5°C 82% 5.0 mph N8.0 kmh N 14.0 mph22.5 kmh 29.83 in1010.2 mb 0.00 in0.0 mm 0.00 in0.0 mm 0.00 in0.0 mm
08:40 AM 60.2°F15.7°C 54.4°F12.4°C 81% 7.0 mph N11.3 kmh N 14.0 mph22.5 kmh 29.83 in1010.2 mb 0.00 in0.0 mm 0.00 in0.0 mm 0.00 in0.0 mm
08:45 AM 60.2°F15.7°C 53.7°F12.1°C 79% 7.0 mph N11.3 kmh N 11.0 mph17.7 kmh 29.83 in1010.2 mb 0.00 in0.0 mm 0.00 in0.0 mm 0.00 in0.0 mm
08:50 AM 60.2°F15.7°C 54.0°F12.2°C 80% 6.0 mph N9.7 kmh N 14.0 mph22.5 kmh 29.83 in1010.2 mb 0.00 in0.0 mm 0.00 in0.0 mm 0.00 in0.0 mm
08:55 AM 60.5°F15.8°C 54.0°F12.2°C 79% 7.0 mph N11.3 kmh N 14.0 mph22.5 kmh 29.84 in1010.5 mb 0.00 in0.0 mm 0.00 in0.0 mm 0.00 in0.0 mm
09:00 AM 60.6°F15.9°C 53.7°F12.1°C 78% 7.0 mph N11.3 kmh N 11.0 mph17.7 kmh 29.84 in1010.5 mb 0.00 in0.0 mm 0.00 in0.0 mm 0.00 in0.0 mm
09:05 AM 60.5°F15.8°C 53.3°F11.8°C 77% 4.0 mph N6.4 kmh N 16.0 mph25.7 kmh 29.84 in1010.5 mb 0.00 in0.0 mm 0.00 in0.0 mm 0.00 in0.0 mm
09:10 AM 60.5°F15.8°C 53.6°F12.0°C 78% 5.0 mph N8.0 kmh N 16.0 mph25.7 kmh 29.83 in1010.2 mb 0.00 in0.0 mm 0.00 in0.0 mm 0.00 in0.0 mm
09:15 AM 60.5°F15.8°C 53.6°F12.0°C 78% 10.0 mph N16.1 kmh N 10.0 mph16.1 kmh 29.84 in1010.5 mb 0.00 in0.0 mm 0.00 in0.0 mm 0.00 in0.0 mm
09:20 AM 60.6°F15.9°C 54.1°F12.3°C 79% 10.0 mph N16.1 kmh N 16.0 mph25.7 kmh 29.84 in1010.5 mb 0.00 in0.0 mm 0.00 in0.0 mm 0.00 in0.0 mm
09:25 AM 60.7°F15.9°C 53.8°F12.1°C 78% 8.0 mph N12.9 kmh N 16.0 mph25.7 kmh 29.85 in1010.8 mb 0.00 in0.0 mm 0.00 in0.0 mm 0.00 in0.0 mm
09:30 AM 61.0°F16.1°C 54.5°F12.5°C 79% 6.0 mph N9.7 kmh N 7.0 mph11.3 kmh 29.84 in1010.5 mb 0.00 in0.0 mm 0.00 in0.0 mm 0.00 in0.0 mm
09:35 AM 61.1°F16.2°C 53.5°F11.9°C 76% 8.0 mph N12.9 kmh N 15.0 mph24.1 kmh 29.85 in1010.8 mb 0.00 in0.0 mm 0.00 in0.0 mm 0.00 in0.0 mm
09:40 AM 61.0°F16.1°C 53.4°F11.9°C 76% 13.0 mph N20.9 kmh N 15.0 mph24.1 kmh 29.84 in1010.5 mb 0.00 in0.0 mm 0.00 in0.0 mm 0.00 in0.0 mm
09:45 AM 61.1°F16.2°C 53.5°F11.9°C 76% 5.0 mph N8.0 kmh N 5.0 mph8.0 kmh 29.85 in1010.8 mb 0.00 in0.0 mm 0.00 in0.0 mm 0.00 in0.0 mm
09:50 AM 61.4°F16.3°C 53.8°F12.1°C 76% 7.0 mph N11.3 kmh N 15.0 mph24.1 kmh 29.85 in1010.8 mb 0.00 in0.0 mm 0.00 in0.0 mm 0.00 in0.0 mm
09:55 AM 61.8°F16.6°C 53.8°F12.1°C 75% 6.0 mph N9.7 kmh N 15.0 mph24.1 kmh 29.85 in1010.8 mb 0.00 in0.0 mm 0.00 in0.0 mm 0.00 in0.0 mm
10:00 AM 62.2°F16.8°C 53.8°F12.1°C 74% 8.0 mph N12.9 kmh N 9.0 mph14.5 kmh 29.85 in1010.8 mb 0.00 in0.0 mm 0.00 in0.0 mm 0.00 in0.0 mm
10:05 AM 62.4°F16.9°C 54.0°F12.2°C 74% 7.0 mph N11.3 kmh N 11.0 mph17.7 kmh 29.85 in1010.8 mb 0.00 in0.0 mm 0.00 in0.0 mm 0.00 in0.0 mm
10:10 AM 62.6°F17.0°C 53.8°F12.1°C 73% 11.0 mph N17.7 kmh N 14.0 mph22.5 kmh 29.85 in1010.8 mb 0.00 in0.0 mm 0.00 in0.0 mm 0.00 in0.0 mm
10:15 AM 63.0°F17.2°C 54.2°F12.3°C 73% 4.0 mph N6.4 kmh N 6.0 mph9.7 kmh 29.85 in1010.8 mb 0.00 in0.0 mm 0.00 in0.0 mm 0.00 in0.0 mm
10:20 AM 63.3°F17.4°C 54.1°F12.3°C 72% 8.0 mph N12.9 kmh N 11.0 mph17.7 kmh 29.84 in1010.5 mb 0.00 in0.0 mm 0.00 in0.0 mm 0.00 in0.0 mm
10:25 AM 63.4°F17.4°C 54.6°F12.6°C 73% 7.0 mph N11.3 kmh N 15.0 mph24.1 kmh 29.84 in1010.5 mb 0.00 in0.0 mm 0.00 in0.0 mm 0.00 in0.0 mm
10:30 AM 63.3°F17.4°C 54.5°F12.5°C 73% 4.0 mph N6.4 kmh N 8.0 mph12.9 kmh 29.85 in1010.8 mb 0.00 in0.0 mm 0.00 in0.0 mm 0.00 in0.0 mm
10:35 AM 63.4°F17.4°C 54.6°F12.6°C 73% 5.0 mph N8.0 kmh N 17.0 mph27.4 kmh 29.85 in1010.8 mb 0.00 in0.0 mm 0.00 in0.0 mm 0.00 in0.0 mm
10:40 AM 63.3°F17.4°C 53.8°F12.1°C 71% 8.0 mph N12.9 kmh N 17.0 mph27.4 kmh 29.85 in1010.8 mb 0.00 in0.0 mm 0.00 in0.0 mm 0.00 in0.0 mm
10:45 AM 63.3°F17.4°C 54.5°F12.5°C 73% 3.0 mph N4.8 kmh N 7.0 mph11.3 kmh 29.85 in1010.8 mb 0.00 in0.0 mm 0.00 in0.0 mm 0.00 in0.0 mm
10:50 AM 63.7°F17.6°C 55.3°F12.9°C 74% 4.0 mph N6.4 kmh N 12.0 mph19.3 kmh 29.85 in1010.8 mb 0.00 in0.0 mm 0.00 in0.0 mm 0.00 in0.0 mm
10:55 AM 63.8°F17.7°C 54.2°F12.3°C 71% 8.0 mph N12.9 kmh N 16.0 mph25.7 kmh 29.85 in1010.8 mb 0.00 in0.0 mm 0.00 in0.0 mm 0.00 in0.0 mm
11:00 AM 63.6°F17.6°C 53.7°F12.1°C 70% 4.0 mph N6.4 kmh N 9.0 mph14.5 kmh 29.85 in1010.8 mb 0.00 in0.0 mm 0.00 in0.0 mm 0.00 in0.0 mm
11:05 AM 63.6°F17.6°C 54.0°F12.2°C 71% 8.0 mph N12.9 kmh N 17.0 mph27.4 kmh 29.85 in1010.8 mb 0.00 in0.0 mm 0.00 in0.0 mm 0.00 in0.0 mm
11:10 AM 63.8°F17.7°C 54.6°F12.6°C 72% 13.0 mph N20.9 kmh N 19.0 mph30.6 kmh 29.85 in1010.8 mb 0.00 in0.0 mm 0.00 in0.0 mm 0.00 in0.0 mm
11:15 AM 64.3°F17.9°C 54.7°F12.6°C 71% 8.0 mph N12.9 kmh N 8.0 mph12.9 kmh 29.85 in1010.8 mb 0.00 in0.0 mm 0.00 in0.0 mm 0.00 in0.0 mm
11:20 AM 64.4°F18.0°C 54.8°F12.7°C 71% 4.0 mph N6.4 kmh N 13.0 mph20.9 kmh 29.85 in1010.8 mb 0.00 in0.0 mm 0.00 in0.0 mm 0.00 in0.0 mm
11:25 AM 64.4°F18.0°C 54.4°F12.4°C 70% 7.0 mph N11.3 kmh N 16.0 mph25.7 kmh 29.85 in1010.8 mb 0.00 in0.0 mm 0.00 in0.0 mm 0.00 in0.0 mm
11:30 AM 64.3°F17.9°C 53.9°F12.2°C 69% 7.0 mph N11.3 kmh N 11.0 mph17.7 kmh 29.85 in1010.8 mb 0.00 in0.0 mm 0.00 in0.0 mm 0.00 in0.0 mm
11:35 AM 64.1°F17.8°C 53.7°F12.1°C 69% 9.0 mph N14.5 kmh N 19.0 mph30.6 kmh 29.85 in1010.8 mb 0.00 in0.0 mm 0.00 in0.0 mm 0.00 in0.0 mm
11:40 AM 63.9°F17.7°C 54.7°F12.6°C 72% 8.0 mph N12.9 kmh N 19.0 mph30.6 kmh 29.85 in1010.8 mb 0.00 in0.0 mm 0.00 in0.0 mm 0.00 in0.0 mm
11:45 AM 64.1°F17.8°C 54.5°F12.5°C 71% 7.0 mph N11.3 kmh N 8.0 mph12.9 kmh 29.85 in1010.8 mb 0.00 in0.0 mm 0.00 in0.0 mm 0.00 in0.0 mm
11:50 AM 64.6°F18.1°C 55.0°F12.8°C 71% 11.0 mph N17.7 kmh N 15.0 mph24.1 kmh 29.85 in1010.8 mb 0.00 in0.0 mm 0.00 in0.0 mm 0.00 in0.0 mm
11:55 AM 64.9°F18.3°C 54.1°F12.3°C 68% 5.0 mph N8.0 kmh N 16.0 mph25.7 kmh 29.85 in1010.8 mb 0.00 in0.0 mm 0.00 in0.0 mm 0.00 in0.0 mm
12:00 PM 65.0°F18.3°C 54.2°F12.3°C 68% 6.0 mph N9.7 kmh N 6.0 mph9.7 kmh 29.85 in1010.8 mb 0.00 in0.0 mm 0.00 in0.0 mm 0.00 in0.0 mm
12:05 PM 65.4°F18.6°C 55.0°F12.8°C 69% 7.0 mph N11.3 kmh N 11.0 mph17.7 kmh 29.85 in1010.8 mb 0.00 in0.0 mm 0.00 in0.0 mm 0.00 in0.0 mm
12:10 PM 65.5°F18.6°C 54.3°F12.4°C 67% 4.0 mph N6.4 kmh N 13.0 mph20.9 kmh 29.85 in1010.8 mb 0.00 in0.0 mm 0.00 in0.0 mm 0.00 in0.0 mm
12:15 PM 65.6°F18.7°C 55.2°F12.9°C 69% 5.0 mph N8.0 kmh N 15.0 mph24.1 kmh 29.85 in1010.8 mb 0.00 in0.0 mm 0.00 in0.0 mm 0.00 in0.0 mm
12:20 PM 65.7°F18.7°C 54.9°F12.7°C 68% 5.0 mph N8.0 kmh N 15.0 mph24.1 kmh 29.85 in1010.8 mb 0.00 in0.0 mm 0.00 in0.0 mm 0.00 in0.0 mm
12:25 PM 66.0°F18.9°C 54.3°F12.4°C 66% 8.0 mph N12.9 kmh N 15.0 mph24.1 kmh 29.85 in1010.8 mb 0.00 in0.0 mm 0.00 in0.0 mm 0.00 in0.0 mm
12:30 PM 66.1°F18.9°C 54.0°F12.2°C 65% 7.0 mph N11.3 kmh N 10.0 mph16.1 kmh 29.85 in1010.8 mb 0.00 in0.0 mm 0.00 in0.0 mm 0.00 in0.0 mm
12:35 PM 66.3°F19.1°C 54.2°F12.3°C 65% 4.0 mph N6.4 kmh N 14.0 mph22.5 kmh 29.85 in1010.8 mb 0.00 in0.0 mm 0.00 in0.0 mm 0.00 in0.0 mm
12:40 PM 66.5°F19.2°C 54.8°F12.7°C 66% 5.0 mph N8.0 kmh N 14.0 mph22.5 kmh 29.85 in1010.8 mb 0.00 in0.0 mm 0.00 in0.0 mm 0.00 in0.0 mm
12:45 PM 66.8°F19.3°C 54.7°F12.6°C 65% 4.0 mph N6.4 kmh N 7.0 mph11.3 kmh 29.85 in1010.8 mb 0.00 in0.0 mm 0.00 in0.0 mm 0.00 in0.0 mm
12:50 PM 67.2°F19.6°C 55.1°F12.8°C 65% 9.0 mph N14.5 kmh N 11.0 mph17.7 kmh 29.85 in1010.8 mb 0.00 in0.0 mm 0.00 in0.0 mm 0.00 in0.0 mm
12:55 PM 67.5°F19.7°C 54.9°F12.7°C 64% 15.0 mph N24.1 kmh N 15.0 mph24.1 kmh 29.85 in1010.8 mb 0.00 in0.0 mm 0.00 in0.0 mm 0.00 in0.0 mm
01:00 PM 67.4°F19.7°C 55.2°F12.9°C 65% 6.0 mph N9.7 kmh N 10.0 mph16.1 kmh 29.84 in1010.5 mb 0.00 in0.0 mm 0.00 in0.0 mm 0.00 in0.0 mm
01:05 PM 67.4°F19.7°C 55.2°F12.9°C 65% 9.0 mph N14.5 kmh N 13.0 mph20.9 kmh 29.84 in1010.5 mb 0.00 in0.0 mm 0.00 in0.0 mm 0.00 in0.0 mm
01:10 PM 67.4°F19.7°C 55.2°F12.9°C 65% 4.0 mph N6.4 kmh N 13.0 mph20.9 kmh 29.84 in1010.5 mb 0.00 in0.0 mm 0.00 in0.0 mm 0.00 in0.0 mm
01:15 PM 67.5°F19.7°C 54.9°F12.7°C 64% 5.0 mph N8.0 kmh N 10.0 mph16.1 kmh 29.84 in1010.5 mb 0.00 in0.0 mm 0.00 in0.0 mm 0.00 in0.0 mm
01:20 PM 67.4°F19.7°C 54.8°F12.7°C 64% 13.0 mph N20.9 kmh N 13.0 mph20.9 kmh 29.84 in1010.5 mb 0.00 in0.0 mm 0.00 in0.0 mm 0.00 in0.0 mm
01:25 PM 67.2°F19.6°C 53.8°F12.1°C 62% 8.0 mph N12.9 kmh N 20.0 mph32.2 kmh 29.84 in1010.5 mb 0.00 in0.0 mm 0.00 in0.0 mm 0.00 in0.0 mm
01:30 PM 67.2°F19.6°C 55.1°F12.8°C 65% 8.0 mph N12.9 kmh N 11.0 mph17.7 kmh 29.84 in1010.5 mb 0.00 in0.0 mm 0.00 in0.0 mm 0.00 in0.0 mm
01:35 PM 67.5°F19.7°C 54.5°F12.5°C 63% 3.0 mph N4.8 kmh N 13.0 mph20.9 kmh 29.84 in1010.5 mb 0.00 in0.0 mm 0.00 in0.0 mm 0.00 in0.0 mm
01:40 PM 67.6°F19.8°C 54.6°F12.6°C 63% 4.0 mph N6.4 kmh N 16.0 mph25.7 kmh 29.84 in1010.5 mb 0.00 in0.0 mm 0.00 in0.0 mm 0.00 in0.0 mm
01:45 PM 68.0°F20.0°C 55.4°F13.0°C 64% 3.0 mph N4.8 kmh N 8.0 mph12.9 kmh 29.84 in1010.5 mb 0.00 in0.0 mm 0.00 in0.0 mm 0.00 in0.0 mm
01:50 PM 68.4°F20.2°C 55.3°F12.9°C 63% 8.0 mph N12.9 kmh N 12.0 mph19.3 kmh 29.84 in1010.5 mb 0.00 in0.0 mm 0.00 in0.0 mm 0.00 in0.0 mm
01:55 PM 68.9°F20.5°C 55.4°F13.0°C 62% 9.0 mph N14.5 kmh N 13.0 mph20.9 kmh 29.84 in1010.5 mb 0.00 in0.0 mm 0.00 in0.0 mm 0.00 in0.0 mm
02:00 PM 69.1°F20.6°C 55.6°F13.1°C 62% 11.0 mph N17.7 kmh N 17.0 mph27.4 kmh 29.84 in1010.5 mb 0.00 in0.0 mm 0.00 in0.0 mm 0.00 in0.0 mm
02:05 PM 69.1°F20.6°C 55.6°F13.1°C 62% 5.0 mph N8.0 kmh N 17.0 mph27.4 kmh 29.84 in1010.5 mb 0.00 in0.0 mm 0.00 in0.0 mm 0.00 in0.0 mm
02:10 PM 69.2°F20.7°C 55.6°F13.1°C 62% 13.0 mph N20.9 kmh N 18.0 mph29.0 kmh 29.84 in1010.5 mb 0.00 in0.0 mm 0.00 in0.0 mm 0.00 in0.0 mm
02:15 PM 69.2°F20.7°C 55.2°F12.9°C 61% 5.0 mph N8.0 kmh N 10.0 mph16.1 kmh 29.84 in1010.5 mb 0.00 in0.0 mm 0.00 in0.0 mm 0.00 in0.0 mm
02:20 PM 69.2°F20.7°C 54.7°F12.6°C 60% 12.0 mph N19.3 kmh N 17.0 mph27.4 kmh 29.84 in1010.5 mb 0.00 in0.0 mm 0.00 in0.0 mm 0.00 in0.0 mm
02:25 PM 69.2°F20.7°C 55.6°F13.1°C 62% 9.0 mph N14.5 kmh N 18.0 mph29.0 kmh 29.84 in1010.5 mb 0.00 in0.0 mm 0.00 in0.0 mm 0.00 in0.0 mm
02:30 PM 69.4°F20.8°C 55.4°F13.0°C 61% 13.0 mph N20.9 kmh N 14.0 mph22.5 kmh 29.84 in1010.5 mb 0.00 in0.0 mm 0.00 in0.0 mm 0.00 in0.0 mm
02:35 PM 69.5°F20.8°C 54.6°F12.6°C 59% 7.0 mph N11.3 kmh N 17.0 mph27.4 kmh 29.84 in1010.5 mb 0.00 in0.0 mm 0.00 in0.0 mm 0.00 in0.0 mm
02:40 PM 69.7°F20.9°C 54.3°F12.4°C 58% 12.0 mph N19.3 kmh N 18.0 mph29.0 kmh 29.84 in1010.5 mb 0.00 in0.0 mm 0.00 in0.0 mm 0.00 in0.0 mm
02:45 PM 70.0°F21.1°C 54.6°F12.6°C 58% 15.0 mph N24.1 kmh N 15.0 mph24.1 kmh 29.84 in1010.5 mb 0.00 in0.0 mm 0.00 in0.0 mm 0.00 in0.0 mm
02:50 PM 69.9°F21.1°C 54.9°F12.7°C 59% 6.0 mph N9.7 kmh N 17.0 mph27.4 kmh 29.84 in1010.5 mb 0.00 in0.0 mm 0.00 in0.0 mm 0.00 in0.0 mm
02:55 PM 70.0°F21.1°C 55.0°F12.8°C 59% 7.0 mph N11.3 kmh N 17.0 mph27.4 kmh 29.84 in1010.5 mb 0.00 in0.0 mm 0.00 in0.0 mm 0.00 in0.0 mm
03:00 PM 70.2°F21.2°C 54.8°F12.7°C 58% 9.0 mph N14.5 kmh N 11.0 mph17.7 kmh 29.84 in1010.5 mb 0.00 in0.0 mm 0.00 in0.0 mm 0.00 in0.0 mm
03:05 PM 70.3°F21.3°C 55.3°F12.9°C 59% 11.0 mph N17.7 kmh N 15.0 mph24.1 kmh 29.84 in1010.5 mb 0.00 in0.0 mm 0.00 in0.0 mm 0.00 in0.0 mm
03:10 PM 70.2°F21.2°C 54.3°F12.4°C 57% 9.0 mph N14.5 kmh N 18.0 mph29.0 kmh 29.84 in1010.5 mb 0.00 in0.0 mm 0.00 in0.0 mm 0.00 in0.0 mm
03:15 PM 69.9°F21.1°C 54.9°F12.7°C 59% 15.0 mph N24.1 kmh N 15.0 mph24.1 kmh 29.84 in1010.5 mb 0.00 in0.0 mm 0.00 in0.0 mm 0.00 in0.0 mm
03:20 PM 70.0°F21.1°C 53.6°F12.0°C 56% 7.0 mph N11.3 kmh N 20.0 mph32.2 kmh 29.84 in1010.5 mb 0.00 in0.0 mm 0.00 in0.0 mm 0.00 in0.0 mm
03:25 PM 70.5°F21.4°C 55.0°F12.8°C 58% 7.0 mph N11.3 kmh N 20.0 mph32.2 kmh 29.84 in1010.5 mb 0.00 in0.0 mm 0.00 in0.0 mm 0.00 in0.0 mm
03:30 PM 70.6°F21.4°C 54.2°F12.3°C 56% 7.0 mph N11.3 kmh N 11.0 mph17.7 kmh 29.84 in1010.5 mb 0.00 in0.0 mm 0.00 in0.0 mm 0.00 in0.0 mm
03:35 PM 70.7°F21.5°C 54.3°F12.4°C 56% 14.0 mph N22.5 kmh N 19.0 mph30.6 kmh 29.84 in1010.5 mb 0.00 in0.0 mm 0.00 in0.0 mm 0.00 in0.0 mm
03:40 PM 70.6°F21.4°C 53.7°F12.1°C 55% 10.0 mph N16.1 kmh N 19.0 mph30.6 kmh 29.84 in1010.5 mb 0.00 in0.0 mm 0.00 in0.0 mm 0.00 in0.0 mm
03:45 PM 70.7°F21.5°C 54.3°F12.4°C 56% 14.0 mph N22.5 kmh N 14.0 mph22.5 kmh 29.84 in1010.5 mb 0.00 in0.0 mm 0.00 in0.0 mm 0.00 in0.0 mm
03:50 PM 70.6°F21.4°C 53.2°F11.8°C 54% 8.0 mph N12.9 kmh N 17.0 mph27.4 kmh 29.84 in1010.5 mb 0.00 in0.0 mm 0.00 in0.0 mm 0.00 in0.0 mm
03:55 PM 70.4°F21.3°C 54.0°F12.2°C 56% 7.0 mph N11.3 kmh N 20.0 mph32.2 kmh 29.84 in1010.5 mb 0.00 in0.0 mm 0.00 in0.0 mm 0.00 in0.0 mm
04:00 PM 70.6°F21.4°C 54.6°F12.6°C 57% 6.0 mph N9.7 kmh N 14.0 mph22.5 kmh 29.83 in1010.2 mb 0.00 in0.0 mm 0.00 in0.0 mm 0.00 in0.0 mm
04:05 PM 70.5°F21.4°C 55.0°F12.8°C 58% 7.0 mph N11.3 kmh N 15.0 mph24.1 kmh 29.84 in1010.5 mb 0.00 in0.0 mm 0.00 in0.0 mm 0.00 in0.0 mm
04:10 PM 70.5°F21.4°C 54.6°F12.6°C 57% 7.0 mph N11.3 kmh N 15.0 mph24.1 kmh 29.84 in1010.5 mb 0.00 in0.0 mm 0.00 in0.0 mm 0.00 in0.0 mm
04:15 PM 70.5°F21.4°C 55.0°F12.8°C 58% 5.0 mph N8.0 kmh N 11.0 mph17.7 kmh 29.84 in1010.5 mb 0.00 in0.0 mm 0.00 in0.0 mm 0.00 in0.0 mm
04:20 PM 70.3°F21.3°C 55.3°F12.9°C 59% 6.0 mph N9.7 kmh N 15.0 mph24.1 kmh 29.84 in1010.5 mb 0.00 in0.0 mm 0.00 in0.0 mm 0.00 in0.0 mm
04:25 PM 70.3°F21.3°C 54.4°F12.4°C 57% 10.0 mph N16.1 kmh N 15.0 mph24.1 kmh 29.84 in1010.5 mb 0.00 in0.0 mm 0.00 in0.0 mm 0.00 in0.0 mm
04:30 PM 70.0°F21.1°C 54.6°F12.6°C 58% 6.0 mph N9.7 kmh N 11.0 mph17.7 kmh 29.84 in1010.5 mb 0.00 in0.0 mm 0.00 in0.0 mm 0.00 in0.0 mm
04:35 PM 69.4°F20.8°C 54.5°F12.5°C 59% 8.0 mph N12.9 kmh N 16.0 mph25.7 kmh 29.84 in1010.5 mb 0.00 in0.0 mm 0.00 in0.0 mm 0.00 in0.0 mm
04:40 PM 69.0°F20.6°C 54.1°F12.3°C 59% 4.0 mph N6.4 kmh N 16.0 mph25.7 kmh 29.85 in1010.8 mb 0.00 in0.0 mm 0.00 in0.0 mm 0.00 in0.0 mm
04:45 PM 69.2°F20.7°C 54.7°F12.6°C 60% 8.0 mph N12.9 kmh N 13.0 mph20.9 kmh 29.84 in1010.5 mb 0.00 in0.0 mm 0.00 in0.0 mm 0.00 in0.0 mm
04:50 PM 69.5°F20.8°C 55.0°F12.8°C 60% 13.0 mph N20.9 kmh N 18.0 mph29.0 kmh 29.84 in1010.5 mb 0.00 in0.0 mm 0.00 in0.0 mm 0.00 in0.0 mm
04:55 PM 69.6°F20.9°C 54.7°F12.6°C 59% 12.0 mph N19.3 kmh N 20.0 mph32.2 kmh 29.84 in1010.5 mb 0.00 in0.0 mm 0.00 in0.0 mm 0.00 in0.0 mm
05:00 PM 69.3°F20.7°C 53.9°F12.2°C 58% 6.0 mph N9.7 kmh N 8.0 mph12.9 kmh 29.84 in1010.5 mb 0.00 in0.0 mm 0.00 in0.0 mm 0.00 in0.0 mm
05:05 PM 69.3°F20.7°C 54.4°F12.4°C 59% 7.0 mph N11.3 kmh N 20.0 mph32.2 kmh 29.84 in1010.5 mb 0.00 in0.0 mm 0.00 in0.0 mm 0.00 in0.0 mm
05:10 PM 69.3°F20.7°C 54.4°F12.4°C 59% 7.0 mph N11.3 kmh N 20.0 mph32.2 kmh 29.84 in1010.5 mb 0.00 in0.0 mm 0.00 in0.0 mm 0.00 in0.0 mm
05:15 PM 69.1°F20.6°C 54.2°F12.3°C 59% 16.0 mph N25.7 kmh N 16.0 mph25.7 kmh 29.85 in1010.8 mb 0.00 in0.0 mm 0.00 in0.0 mm 0.00 in0.0 mm
05:20 PM 69.0°F20.6°C 54.1°F12.3°C 59% 17.0 mph N27.4 kmh N 17.0 mph27.4 kmh 29.85 in1010.8 mb 0.00 in0.0 mm 0.00 in0.0 mm 0.00 in0.0 mm
05:25 PM 68.7°F20.4°C 53.8°F12.1°C 59% 6.0 mph N9.7 kmh N 17.0 mph27.4 kmh 29.84 in1010.5 mb 0.00 in0.0 mm 0.00 in0.0 mm 0.00 in0.0 mm
05:30 PM 68.7°F20.4°C 53.8°F12.1°C 59% 5.0 mph N8.0 kmh N 6.0 mph9.7 kmh 29.85 in1010.8 mb 0.00 in0.0 mm 0.00 in0.0 mm 0.00 in0.0 mm
05:35 PM 68.6°F20.3°C 53.7°F12.1°C 59% 7.0 mph N11.3 kmh N 14.0 mph22.5 kmh 29.85 in1010.8 mb 0.00 in0.0 mm 0.00 in0.0 mm 0.00 in0.0 mm
05:40 PM 68.5°F20.3°C 53.6°F12.0°C 59% 5.0 mph N8.0 kmh N 14.0 mph22.5 kmh 29.85 in1010.8 mb 0.00 in0.0 mm 0.00 in0.0 mm 0.00 in0.0 mm
05:45 PM 68.3°F20.2°C 53.9°F12.2°C 60% 9.0 mph N14.5 kmh N 10.0 mph16.1 kmh 29.85 in1010.8 mb 0.00 in0.0 mm 0.00 in0.0 mm 0.00 in0.0 mm
05:50 PM 68.2°F20.1°C 54.3°F12.4°C 61% 7.0 mph N11.3 kmh N 16.0 mph25.7 kmh 29.85 in1010.8 mb 0.00 in0.0 mm 0.00 in0.0 mm 0.00 in0.0 mm
05:55 PM 67.8°F19.9°C 53.0°F11.7°C 59% 4.0 mph N6.4 kmh N 16.0 mph25.7 kmh 29.85 in1010.8 mb 0.00 in0.0 mm 0.00 in0.0 mm 0.00 in0.0 mm
06:00 PM 67.2°F19.6°C 52.9°F11.6°C 60% 4.0 mph N6.4 kmh N 10.0 mph16.1 kmh 29.85 in1010.8 mb 0.00 in0.0 mm 0.00 in0.0 mm 0.00 in0.0 mm
06:05 PM 67.0°F19.4°C 53.1°F11.7°C 61% 5.0 mph N8.0 kmh N 13.0 mph20.9 kmh 29.85 in1010.8 mb 0.00 in0.0 mm 0.00 in0.0 mm 0.00 in0.0 mm
06:10 PM 66.7°F19.3°C 52.8°F11.6°C 61% 8.0 mph N12.9 kmh N 15.0 mph24.1 kmh 29.85 in1010.8 mb 0.00 in0.0 mm 0.00 in0.0 mm 0.00 in0.0 mm
06:15 PM 66.5°F19.2°C 53.1°F11.7°C 62% 5.0 mph N8.0 kmh N 10.0 mph16.1 kmh 29.85 in1010.8 mb 0.00 in0.0 mm 0.00 in0.0 mm 0.00 in0.0 mm
06:20 PM 66.3°F19.1°C 52.5°F11.4°C 61% 9.0 mph N14.5 kmh N 13.0 mph20.9 kmh 29.85 in1010.8 mb 0.00 in0.0 mm 0.00 in0.0 mm 0.00 in0.0 mm
06:25 PM 66.1°F18.9°C 52.3°F11.3°C 61% 4.0 mph N6.4 kmh N 13.0 mph20.9 kmh 29.85 in1010.8 mb 0.00 in0.0 mm 0.00 in0.0 mm 0.00 in0.0 mm
06:30 PM 65.9°F18.8°C 53.0°F11.7°C 63% 2.0 mph N3.2 kmh N 6.0 mph9.7 kmh 29.85 in1010.8 mb 0.00 in0.0 mm 0.00 in0.0 mm 0.00 in0.0 mm
06:35 PM 65.8°F18.8°C 52.4°F11.3°C 62% 2.0 mph N3.2 kmh N 13.0 mph20.9 kmh 29.86 in1011.2 mb 0.00 in0.0 mm 0.00 in0.0 mm 0.00 in0.0 mm
06:40 PM 65.6°F18.7°C 52.3°F11.3°C 62% 6.0 mph N9.7 kmh N 14.0 mph22.5 kmh 29.86 in1011.2 mb 0.00 in0.0 mm 0.00 in0.0 mm 0.00 in0.0 mm
06:45 PM 65.5°F18.6°C 52.2°F11.2°C 62% 5.0 mph N8.0 kmh N 5.0 mph8.0 kmh 29.86 in1011.2 mb 0.00 in0.0 mm 0.00 in0.0 mm 0.00 in0.0 mm
06:50 PM 65.5°F18.6°C 51.7°F10.9°C 61% 7.0 mph N11.3 kmh N 14.0 mph22.5 kmh 29.86 in1011.2 mb 0.00 in0.0 mm 0.00 in0.0 mm 0.00 in0.0 mm
06:55 PM 65.2°F18.4°C 51.9°F11.1°C 62% 12.0 mph N19.3 kmh N 17.0 mph27.4 kmh 29.86 in1011.2 mb 0.00 in0.0 mm 0.00 in0.0 mm 0.00 in0.0 mm
07:00 PM 65.1°F18.4°C 50.9°F10.5°C 60% 5.0 mph N8.0 kmh N 12.0 mph19.3 kmh 29.86 in1011.2 mb 0.00 in0.0 mm 0.00 in0.0 mm 0.00 in0.0 mm
07:05 PM 64.8°F18.2°C 51.1°F10.6°C 61% 6.0 mph N9.7 kmh N 15.0 mph24.1 kmh 29.86 in1011.2 mb 0.00 in0.0 mm 0.00 in0.0 mm 0.00 in0.0 mm
07:10 PM 64.6°F18.1°C 50.9°F10.5°C 61% 5.0 mph N8.0 kmh N 16.0 mph25.7 kmh 29.86 in1011.2 mb 0.00 in0.0 mm 0.00 in0.0 mm 0.00 in0.0 mm
07:15 PM 64.5°F18.1°C 51.2°F10.7°C 62% 5.0 mph N8.0 kmh N 5.0 mph8.0 kmh 29.87 in1011.5 mb 0.00 in0.0 mm 0.00 in0.0 mm 0.00 in0.0 mm
07:20 PM 64.4°F18.0°C 50.7°F10.4°C 61% 7.0 mph N11.3 kmh N 16.0 mph25.7 kmh 29.87 in1011.5 mb 0.00 in0.0 mm 0.00 in0.0 mm 0.00 in0.0 mm
07:25 PM 64.3°F17.9°C 50.6°F10.3°C 61% 10.0 mph N16.1 kmh N 16.0 mph25.7 kmh 29.87 in1011.5 mb 0.00 in0.0 mm 0.00 in0.0 mm 0.00 in0.0 mm
07:30 PM 64.1°F17.8°C 50.8°F10.4°C 62% 4.0 mph N6.4 kmh N 8.0 mph12.9 kmh 29.87 in1011.5 mb 0.00 in0.0 mm 0.00 in0.0 mm 0.00 in0.0 mm
07:35 PM 63.8°F17.7°C 50.1°F10.1°C 61% 3.0 mph N4.8 kmh N 13.0 mph20.9 kmh 29.87 in1011.5 mb 0.00 in0.0 mm 0.00 in0.0 mm 0.00 in0.0 mm
07:40 PM 63.5°F17.5°C 50.3°F10.2°C 62% 9.0 mph N14.5 kmh N 13.0 mph20.9 kmh 29.88 in1011.9 mb 0.00 in0.0 mm 0.00 in0.0 mm 0.00 in0.0 mm
07:45 PM 63.2°F17.3°C 50.0°F10.0°C 62% 6.0 mph N9.7 kmh N 12.0 mph19.3 kmh 29.87 in1011.5 mb 0.00 in0.0 mm 0.00 in0.0 mm 0.00 in0.0 mm
07:50 PM 62.9°F17.2°C 50.1°F10.1°C 63% 3.0 mph N4.8 kmh N 14.0 mph22.5 kmh 29.87 in1011.5 mb 0.00 in0.0 mm 0.00 in0.0 mm 0.00 in0.0 mm
07:55 PM 62.7°F17.1°C 50.4°F10.2°C 64% 8.0 mph N12.9 kmh N 14.0 mph22.5 kmh 29.87 in1011.5 mb 0.00 in0.0 mm 0.00 in0.0 mm 0.00 in0.0 mm
08:00 PM 62.5°F16.9°C 50.6°F10.3°C 65% 7.0 mph N11.3 kmh N 9.0 mph14.5 kmh 29.88 in1011.9 mb 0.00 in0.0 mm 0.00 in0.0 mm 0.00 in0.0 mm
08:05 PM 62.3°F16.8°C 50.8°F10.4°C 66% 4.0 mph N6.4 kmh N 9.0 mph14.5 kmh 29.88 in1011.9 mb 0.00 in0.0 mm 0.00 in0.0 mm 0.00 in0.0 mm
08:10 PM 62.0°F16.7°C 50.9°F10.5°C 67% 4.0 mph N6.4 kmh N 9.0 mph14.5 kmh 29.87 in1011.5 mb 0.00 in0.0 mm 0.00 in0.0 mm 0.00 in0.0 mm
08:15 PM 61.8°F16.6°C 50.7°F10.4°C 67% 2.0 mph N3.2 kmh N 4.0 mph6.4 kmh 29.88 in1011.9 mb 0.00 in0.0 mm 0.00 in0.0 mm 0.00 in0.0 mm
08:20 PM 61.6°F16.4°C 51.0°F10.6°C 68% 3.0 mph N4.8 kmh N 9.0 mph14.5 kmh 29.88 in1011.9 mb 0.00 in0.0 mm 0.00 in0.0 mm 0.00 in0.0 mm
08:25 PM 61.3°F16.3°C 51.1°F10.6°C 69% 2.0 mph N3.2 kmh N 9.0 mph14.5 kmh 29.88 in1011.9 mb 0.00 in0.0 mm 0.00 in0.0 mm 0.00 in0.0 mm
08:30 PM 61.1°F16.2°C 50.9°F10.5°C 69% 4.0 mph N6.4 kmh N 4.0 mph6.4 kmh 29.88 in1011.9 mb 0.00 in0.0 mm 0.00 in0.0 mm 0.00 in0.0 mm
08:35 PM 60.8°F16.0°C 51.0°F10.6°C 70% 5.0 mph N8.0 kmh N 7.0 mph11.3 kmh 29.88 in1011.9 mb 0.00 in0.0 mm 0.00 in0.0 mm 0.00 in0.0 mm
08:40 PM 60.5°F15.8°C 50.7°F10.4°C 70% 4.0 mph N6.4 kmh N 8.0 mph12.9 kmh 29.89 in1012.2 mb 0.00 in0.0 mm 0.00 in0.0 mm 0.00 in0.0 mm
08:45 PM 60.3°F15.7°C 50.5°F10.3°C 70% 3.0 mph N4.8 kmh N 4.0 mph6.4 kmh 29.89 in1012.2 mb 0.00 in0.0 mm 0.00 in0.0 mm 0.00 in0.0 mm
08:50 PM 60.0°F15.6°C 50.6°F10.3°C 71% 6.0 mph N9.7 kmh N 9.0 mph14.5 kmh 29.89 in1012.2 mb 0.00 in0.0 mm 0.00 in0.0 mm 0.00 in0.0 mm
08:55 PM 59.8°F15.4°C 50.4°F10.2°C 71% 2.0 mph N3.2 kmh N 9.0 mph14.5 kmh 29.89 in1012.2 mb 0.00 in0.0 mm 0.00 in0.0 mm 0.00 in0.0 mm
09:00 PM 59.6°F15.3°C 50.6°F10.3°C 72% 4.0 mph N6.4 kmh N 4.0 mph6.4 kmh 29.89 in1012.2 mb 0.00 in0.0 mm 0.00 in0.0 mm 0.00 in0.0 mm
09:05 PM 59.4°F15.2°C 50.8°F10.4°C 73% 2.0 mph N3.2 kmh N 7.0 mph11.3 kmh 29.89 in1012.2 mb 0.00 in0.0 mm 0.00 in0.0 mm 0.00 in0.0 mm
09:10 PM 59.1°F15.1°C 50.5°F10.3°C 73% 2.0 mph N3.2 kmh N 7.0 mph11.3 kmh 29.89 in1012.2 mb 0.00 in0.0 mm 0.00 in0.0 mm 0.00 in0.0 mm
09:15 PM 58.9°F14.9°C 50.6°F10.3°C 74% 5.0 mph N8.0 kmh N 5.0 mph8.0 kmh 29.89 in1012.2 mb 0.00 in0.0 mm 0.00 in0.0 mm 0.00 in0.0 mm
09:20 PM 58.6°F14.8°C 50.7°F10.4°C 75% 3.0 mph N4.8 kmh N 6.0 mph9.7 kmh 29.90 in1012.5 mb 0.00 in0.0 mm 0.00 in0.0 mm 0.00 in0.0 mm
09:25 PM 58.3°F14.6°C 50.8°F10.4°C 76% 3.0 mph N4.8 kmh N 6.0 mph9.7 kmh 29.90 in1012.5 mb 0.00 in0.0 mm 0.00 in0.0 mm 0.00 in0.0 mm
09:30 PM 58.0°F14.4°C 50.8°F10.4°C 77% 6.0 mph N9.7 kmh N 6.0 mph9.7 kmh 29.91 in1012.9 mb 0.00 in0.0 mm 0.00 in0.0 mm 0.00 in0.0 mm
09:35 PM 57.8°F14.3°C 51.0°F10.6°C 78% 5.0 mph N8.0 kmh N 6.0 mph9.7 kmh 29.90 in1012.5 mb 0.00 in0.0 mm 0.00 in0.0 mm 0.00 in0.0 mm
09:40 PM 57.6°F14.2°C 50.8°F10.4°C 78% 6.0 mph N9.7 kmh N 6.0 mph9.7 kmh 29.90 in1012.5 mb 0.00 in0.0 mm 0.00 in0.0 mm 0.00 in0.0 mm
09:45 PM 57.4°F14.1°C 51.0°F10.6°C 79% 3.0 mph N4.8 kmh N 4.0 mph6.4 kmh 29.90 in1012.5 mb 0.00 in0.0 mm 0.00 in0.0 mm 0.00 in0.0 mm
09:50 PM 57.2°F14.0°C 51.1°F10.6°C 80% 3.0 mph N4.8 kmh N 7.0 mph11.3 kmh 29.91 in1012.9 mb 0.00 in0.0 mm 0.00 in0.0 mm 0.00 in0.0 mm
09:55 PM 56.9°F13.8°C 51.1°F10.6°C 81% 4.0 mph N6.4 kmh N 8.0 mph12.9 kmh 29.90 in1012.5 mb 0.00 in0.0 mm 0.00 in0.0 mm 0.00 in0.0 mm
10:00 PM 56.8°F13.8°C 51.4°F10.8°C 82% 5.0 mph N8.0 kmh N 5.0 mph8.0 kmh 29.91 in1012.9 mb 0.00 in0.0 mm 0.00 in0.0 mm 0.00 in0.0 mm
10:05 PM 56.5°F13.6°C 51.1°F10.6°C 82% 2.0 mph N3.2 kmh N 7.0 mph11.3 kmh 29.91 in1012.9 mb 0.00 in0.0 mm 0.00 in0.0 mm 0.00 in0.0 mm
10:10 PM 56.3°F13.5°C 51.2°F10.7°C 83% 5.0 mph N8.0 kmh N 7.0 mph11.3 kmh 29.92 in1013.2 mb 0.00 in0.0 mm 0.00 in0.0 mm 0.00 in0.0 mm
10:15 PM 56.0°F13.3°C 50.9°F10.5°C 83% 1.0 mph N1.6 kmh N 2.0 mph3.2 kmh 29.91 in1012.9 mb 0.00 in0.0 mm 0.00 in0.0 mm 0.00 in0.0 mm
10:20 PM 55.8°F13.2°C 51.1°F10.6°C 84% 2.0 mph N3.2 kmh N 5.0 mph8.0 kmh 29.92 in1013.2 mb 0.00 in0.0 mm 0.00 in0.0 mm 0.00 in0.0 mm
10:25 PM 55.7°F13.2°C 51.0°F10.6°C 84% 1.0 mph N1.6 kmh N 5.0 mph8.0 kmh 29.92 in1013.2 mb 0.00 in0.0 mm 0.00 in0.0 mm 0.00 in0.0 mm
10:30 PM 55.5°F13.1°C 51.1°F10.6°C 85% 2.0 mph N3.2 kmh N 2.0 mph3.2 kmh 29.92 in1013.2 mb 0.00 in0.0 mm 0.00 in0.0 mm 0.00 in0.0 mm
10:35 PM 55.4°F13.0°C 51.0°F10.6°C 85% 2.0 mph N3.2 kmh N 5.0 mph8.0 kmh 29.92 in1013.2 mb 0.00 in0.0 mm 0.00 in0.0 mm 0.00 in0.0 mm
10:40 PM 55.3°F12.9°C 50.9°F10.5°C 85% 2.0 mph N3.2 kmh N 5.0 mph8.0 kmh 29.92 in1013.2 mb 0.00 in0.0 mm 0.00 in0.0 mm 0.00 in0.0 mm
10:45 PM 55.1°F12.8°C 50.7°F10.4°C 85% 1.0 mph N1.6 kmh N 2.0 mph3.2 kmh 29.93 in1013.5 mb 0.00 in0.0 mm 0.00 in0.0 mm 0.00 in0.0 mm
10:50 PM 55.0°F12.8°C 50.9°F10.5°C 86% 1.0 mph N1.6 kmh N 5.0 mph8.0 kmh 29.92 in1013.2 mb 0.00 in0.0 mm 0.00 in0.0 mm 0.00 in0.0 mm
10:55 PM 54.9°F12.7°C 50.8°F10.4°C 86% 2.0 mph N3.2 kmh N 5.0 mph8.0 kmh 29.92 in1013.2 mb 0.00 in0.0 mm 0.00 in0.0 mm 0.00 in0.0 mm
11:00 PM 54.7°F12.6°C 50.6°F10.3°C 86% 1.0 mph N1.6 kmh N 1.0 mph1.6 kmh 29.92 in1013.2 mb 0.00 in0.0 mm 0.00 in0.0 mm 0.00 in0.0 mm
11:05 PM 54.5°F12.5°C 50.4°F10.2°C 86% 2.0 mph N3.2 kmh N 4.0 mph6.4 kmh 29.92 in1013.2 mb 0.00 in0.0 mm 0.00 in0.0 mm 0.00 in0.0 mm
11:10 PM 54.2°F12.3°C 50.4°F10.2°C 87% 2.0 mph N3.2 kmh N 4.0 mph6.4 kmh 29.93 in1013.5 mb 0.00 in0.0 mm 0.00 in0.0 mm 0.00 in0.0 mm
11:15 PM 54.0°F12.2°C 50.2°F10.1°C 87% 2.0 mph N3.2 kmh N 3.0 mph4.8 kmh 29.92 in1013.2 mb 0.00 in0.0 mm 0.00 in0.0 mm 0.00 in0.0 mm
11:20 PM 53.9°F12.2°C 50.4°F10.2°C 88% 2.0 mph N3.2 kmh N 3.0 mph4.8 kmh 29.93 in1013.5 mb 0.00 in0.0 mm 0.00 in0.0 mm 0.00 in0.0 mm
11:25 PM 53.8°F12.1°C 50.3°F10.2°C 88% Calm Calm 6.0 mph9.7 kmh 29.93 in1013.5 mb 0.00 in0.0 mm 0.00 in0.0 mm 0.00 in0.0 mm
11:30 PM 53.6°F12.0°C 50.1°F10.1°C 88% 1.0 mph N1.6 kmh N 4.0 mph6.4 kmh 29.93 in1013.5 mb 0.00 in0.0 mm 0.00 in0.0 mm 0.00 in0.0 mm
11:35 PM 53.6°F12.0°C 50.4°F10.2°C 89% 3.0 mph N4.8 kmh N 5.0 mph8.0 kmh 29.92 in1013.2 mb 0.00 in0.0 mm 0.00 in0.0 mm 0.00 in0.0 mm
11:40 PM 53.5°F11.9°C 50.3°F10.2°C 89% 3.0 mph N4.8 kmh N 5.0 mph8.0 kmh 29.93 in1013.5 mb 0.00 in0.0 mm 0.00 in0.0 mm 0.00 in0.0 mm
11:45 PM 53.5°F11.9°C 50.3°F10.2°C 89% 1.0 mph N1.6 kmh N 2.0 mph3.2 kmh 29.92 in1013.2 mb 0.00 in0.0 mm 0.00 in0.0 mm 0.00 in0.0 mm
11:50 PM 53.4°F11.9°C 50.3°F10.2°C 89% 3.0 mph N4.8 kmh N 4.0 mph6.4 kmh 29.92 in1013.2 mb 0.00 in0.0 mm 0.00 in0.0 mm 0.00 in0.0 mm
11:55 PM 53.3°F11.8°C 50.2°F10.1°C 89% 3.0 mph N4.8 kmh N 6.0 mph9.7 kmh 29.93 in1013.5 mb 0.00 in0.0 mm 0.00 in0.0 mm 0.00 in0.0 mm